sensor_id;sensor_type;location;lat;lon;timestamp;pressure;altitude;pressure_sealevel;temperature;humidity
46448;BME280;32145;50.390;30.778;2023-01-30T00:01:58;99985.22;;;-2.63;63.15
46448;BME280;32145;50.390;30.778;2023-01-30T00:04:42;99994.88;;;-2.62;63.58
46448;BME280;32145;50.390;30.778;2023-01-30T00:07:26;99988.72;;;-2.63;63.61
46448;BME280;32145;50.390;30.778;2023-01-30T00:10:10;99985.91;;;-2.61;63.60
46448;BME280;32145;50.390;30.778;2023-01-30T00:12:54;99977.25;;;-2.63;63.41
46448;BME280;32145;50.390;30.778;2023-01-30T00:15:42;99984.38;;;-2.64;63.52
46448;BME280;32145;50.390;30.778;2023-01-30T00:18:26;99978.38;;;-2.66;63.11
46448;BME280;32145;50.390;30.778;2023-01-30T00:21:12;99988.19;;;-2.66;63.03
46448;BME280;32145;50.390;30.778;2023-01-30T00:23:56;99975.88;;;-2.67;63.50
46448;BME280;32145;50.390;30.778;2023-01-30T00:26:40;99977.84;;;-2.69;63.72
46448;BME280;32145;50.390;30.778;2023-01-30T00:29:24;99970.69;;;-2.69;63.84
46448;BME280;32145;50.390;30.778;2023-01-30T00:32:09;99966.09;;;-2.67;63.48
46448;BME280;32145;50.390;30.778;2023-01-30T00:34:56;99960.94;;;-2.68;63.74
46448;BME280;32145;50.390;30.778;2023-01-30T00:37:42;99962.44;;;-2.66;63.61
46448;BME280;32145;50.390;30.778;2023-01-30T00:40:30;99971.25;;;-2.65;63.72
46448;BME280;32145;50.390;30.778;2023-01-30T00:43:16;99959.25;;;-2.69;63.91
46448;BME280;32145;50.390;30.778;2023-01-30T00:46:02;99960.94;;;-2.68;63.87
46448;BME280;32145;50.390;30.778;2023-01-30T00:48:52;99956.59;;;-2.69;63.40
46448;BME280;32145;50.390;30.778;2023-01-30T00:51:38;99958.28;;;-2.68;64.16
46448;BME280;32145;50.390;30.778;2023-01-30T00:54:22;99946.66;;;-2.67;64.17
46448;BME280;32145;50.390;30.778;2023-01-30T00:57:07;99949.31;;;-2.67;63.67
46448;BME280;32145;50.390;30.778;2023-01-30T00:59:51;99939.69;;;-2.68;64.18
46448;BME280;32145;50.390;30.778;2023-01-30T01:02:35;99930.88;;;-2.69;64.20
46448;BME280;32145;50.390;30.778;2023-01-30T01:05:20;99930.06;;;-2.69;63.87
46448;BME280;32145;50.390;30.778;2023-01-30T01:08:04;99928.09;;;-2.67;64.36
46448;BME280;32145;50.390;30.778;2023-01-30T01:10:48;99915.28;;;-2.72;64.22
46448;BME280;32145;50.390;30.778;2023-01-30T01:13:32;99915.81;;;-2.68;64.60
46448;BME280;32145;50.390;30.778;2023-01-30T01:16:18;99914.81;;;-2.67;64.75
46448;BME280;32145;50.390;30.778;2023-01-30T01:19:04;99901.53;;;-2.67;64.77
46448;BME280;32145;50.390;30.778;2023-01-30T01:21:49;99905.19;;;-2.68;64.55
46448;BME280;32145;50.390;30.778;2023-01-30T01:24:33;99915.81;;;-2.68;64.75
46448;BME280;32145;50.390;30.778;2023-01-30T01:27:17;99917.75;;;-2.70;64.72
46448;BME280;32145;50.390;30.778;2023-01-30T01:30:06;99905.19;;;-2.68;64.88
46448;BME280;32145;50.390;30.778;2023-01-30T01:32:50;99904.91;;;-2.65;64.22
46448;BME280;32145;50.390;30.778;2023-01-30T01:35:39;99903.81;;;-2.73;64.80
46448;BME280;32145;50.390;30.778;2023-01-30T01:38:25;99897.66;;;-2.73;64.28
46448;BME280;32145;50.390;30.778;2023-01-30T01:41:09;99896.00;;;-2.74;65.04
46448;BME280;32145;50.390;30.778;2023-01-30T01:44:02;99902.72;;;-2.80;65.01
46448;BME280;32145;50.390;30.778;2023-01-30T01:46:51;99897.41;;;-2.80;65.28
46448;BME280;32145;50.390;30.778;2023-01-30T01:49:40;99898.41;;;-2.81;65.38
46448;BME280;32145;50.390;30.778;2023-01-30T01:52:25;99902.72;;;-2.80;65.60
46448;BME280;32145;50.390;30.778;2023-01-30T01:55:11;99904.38;;;-2.79;65.33
46448;BME280;32145;50.390;30.778;2023-01-30T01:57:59;99897.13;;;-2.77;64.93
46448;BME280;32145;50.390;30.778;2023-01-30T02:00:46;99891.81;;;-2.77;65.41
46448;BME280;32145;50.390;30.778;2023-01-30T02:03:33;99892.09;;;-2.80;64.81
46448;BME280;32145;50.390;30.778;2023-01-30T02:06:20;99887.66;;;-2.79;65.04
46448;BME280;32145;50.390;30.778;2023-01-30T02:09:07;99885.81;;;-2.79;65.28
46448;BME280;32145;50.390;30.778;2023-01-30T02:12:00;99886.94;;;-2.81;65.29
46448;BME280;32145;50.390;30.778;2023-01-30T02:14:47;99881.50;;;-2.80;65.83
46448;BME280;32145;50.390;30.778;2023-01-30T02:17:33;99877.16;;;-2.81;65.45
46448;BME280;32145;50.390;30.778;2023-01-30T02:20:24;99882.19;;;-2.78;65.71
46448;BME280;32145;50.390;30.778;2023-01-30T02:26:46;99875.91;;;-2.77;65.89
46448;BME280;32145;50.390;30.778;2023-01-30T02:33:09;99854.09;;;-2.80;65.61
46448;BME280;32145;50.390;30.778;2023-01-30T02:36:03;99853.28;;;-2.81;65.58
46448;BME280;32145;50.390;30.778;2023-01-30T02:38:58;99848.13;;;-2.82;66.02
46448;BME280;32145;50.390;30.778;2023-01-30T02:41:56;99843.81;;;-2.83;65.76
46448;BME280;32145;50.390;30.778;2023-01-30T02:44:49;99849.94;;;-2.83;66.10
46448;BME280;32145;50.390;30.778;2023-01-30T02:47:38;99848.97;;;-2.82;66.17
46448;BME280;32145;50.390;30.778;2023-01-30T02:50:35;99841.69;;;-2.80;66.43
46448;BME280;32145;50.390;30.778;2023-01-30T02:53:22;99835.72;;;-2.82;66.52
46448;BME280;32145;50.390;30.778;2023-01-30T02:56:06;99830.22;;;-2.80;66.14
46448;BME280;32145;50.390;30.778;2023-01-30T02:58:57;99824.78;;;-2.79;66.58
46448;BME280;32145;50.390;30.778;2023-01-30T03:02:09;99821.44;;;-2.81;66.01
46448;BME280;32145;50.390;30.778;2023-01-30T03:05:18;99823.09;;;-2.80;66.76
46448;BME280;32145;50.390;30.778;2023-01-30T03:08:15;99813.78;;;-2.84;66.31
46448;BME280;32145;50.390;30.778;2023-01-30T03:11:05;99816.72;;;-2.87;66.48
46448;BME280;32145;50.390;30.778;2023-01-30T03:13:57;99817.13;;;-2.82;66.27
46448;BME280;32145;50.390;30.778;2023-01-30T03:16:47;99816.13;;;-2.81;66.53
46448;BME280;32145;50.390;30.778;2023-01-30T03:19:34;99810.69;;;-2.79;66.71
46448;BME280;32145;50.390;30.778;2023-01-30T03:22:19;99807.19;;;-2.80;66.36
46448;BME280;32145;50.390;30.778;2023-01-30T03:25:14;99806.06;;;-2.77;66.54
46448;BME280;32145;50.390;30.778;2023-01-30T03:28:04;99804.09;;;-2.75;66.14
46448;BME280;32145;50.390;30.778;2023-01-30T03:30:49;99800.75;;;-2.77;66.79
46448;BME280;32145;50.390;30.778;2023-01-30T03:33:33;99807.56;;;-2.75;66.82
46448;BME280;32145;50.390;30.778;2023-01-30T03:36:17;99800.44;;;-2.74;66.86
46448;BME280;32145;50.390;30.778;2023-01-30T03:39:02;99797.94;;;-2.76;66.85
46448;BME280;32145;50.390;30.778;2023-01-30T03:41:48;99798.66;;;-2.74;66.55
46448;BME280;32145;50.390;30.778;2023-01-30T03:44:31;99793.34;;;-2.74;66.55
46448;BME280;32145;50.390;30.778;2023-01-30T03:47:15;99790.28;;;-2.79;66.69
46448;BME280;32145;50.390;30.778;2023-01-30T03:49:59;99783.88;;;-2.76;66.34
46448;BME280;32145;50.390;30.778;2023-01-30T03:52:47;99783.69;;;-2.75;66.39
46448;BME280;32145;50.390;30.778;2023-01-30T03:55:30;99781.22;;;-2.76;66.54
46448;BME280;32145;50.390;30.778;2023-01-30T03:58:16;99774.75;;;-2.74;66.27
46448;BME280;32145;50.390;30.778;2023-01-30T04:01:00;99766.09;;;-2.76;66.30
46448;BME280;32145;50.390;30.778;2023-01-30T04:03:46;99767.75;;;-2.75;66.41
46448;BME280;32145;50.390;30.778;2023-01-30T04:06:31;99762.31;;;-2.73;66.14
46448;BME280;32145;50.390;30.778;2023-01-30T04:09:15;99771.63;;;-2.69;66.27
46448;BME280;32145;50.390;30.778;2023-01-30T04:11:59;99760.88;;;-2.67;66.71
46448;BME280;32145;50.390;30.778;2023-01-30T04:14:44;99759.50;;;-2.72;66.31
46448;BME280;32145;50.390;30.778;2023-01-30T04:17:28;99761.34;;;-2.72;66.20
46448;BME280;32145;50.390;30.778;2023-01-30T04:20:12;99763.81;;;-2.70;66.50
46448;BME280;32145;50.390;30.778;2023-01-30T04:22:56;99754.19;;;-2.72;66.24
46448;BME280;32145;50.390;30.778;2023-01-30T04:25:40;99760.22;;;-2.69;66.06
46448;BME280;32145;50.390;30.778;2023-01-30T04:28:26;99761.03;;;-2.69;66.27
46448;BME280;32145;50.390;30.778;2023-01-30T04:31:15;99757.41;;;-2.68;66.67
46448;BME280;32145;50.390;30.778;2023-01-30T04:33:58;99766.47;;;-2.70;66.39
46448;BME280;32145;50.390;30.778;2023-01-30T04:36:42;99761.50;;;-2.74;66.82
46448;BME280;32145;50.390;30.778;2023-01-30T04:39:26;99756.84;;;-2.72;66.99
46448;BME280;32145;50.390;30.778;2023-01-30T04:42:10;99766.09;;;-2.76;66.85
46448;BME280;32145;50.390;30.778;2023-01-30T04:44:54;99762.47;;;-2.75;66.56
46448;BME280;32145;50.390;30.778;2023-01-30T04:47:39;99752.03;;;-2.76;67.17
46448;BME280;32145;50.390;30.778;2023-01-30T04:50:23;99748.22;;;-2.74;66.79
46448;BME280;32145;50.390;30.778;2023-01-30T04:53:10;99750.56;;;-2.70;66.96
46448;BME280;32145;50.390;30.778;2023-01-30T04:55:54;99744.88;;;-2.76;66.75
46448;BME280;32145;50.390;30.778;2023-01-30T04:58:38;99738.19;;;-2.80;67.15
46448;BME280;32145;50.390;30.778;2023-01-30T05:01:29;99739.84;;;-2.79;67.17
46448;BME280;32145;50.390;30.778;2023-01-30T05:04:15;99737.34;;;-2.80;67.28
46448;BME280;32145;50.390;30.778;2023-01-30T05:06:59;99739.56;;;-2.76;67.00
46448;BME280;32145;50.390;30.778;2023-01-30T05:09:43;99730.22;;;-2.80;67.88
46448;BME280;32145;50.390;30.778;2023-01-30T05:12:29;99735.91;;;-2.75;67.03
46448;BME280;32145;50.390;30.778;2023-01-30T05:15:13;99733.97;;;-2.73;67.42
46448;BME280;32145;50.390;30.778;2023-01-30T05:17:57;99727.81;;;-2.73;67.73
46448;BME280;32145;50.390;30.778;2023-01-30T05:20:43;99731.59;;;-2.76;67.27
46448;BME280;32145;50.390;30.778;2023-01-30T05:23:27;99723.94;;;-2.79;68.02
46448;BME280;32145;50.390;30.778;2023-01-30T05:26:11;99723.66;;;-2.76;68.10
46448;BME280;32145;50.390;30.778;2023-01-30T05:28:56;99719.19;;;-2.75;68.13
46448;BME280;32145;50.390;30.778;2023-01-30T05:31:44;99713.59;;;-2.72;67.73
46448;BME280;32145;50.390;30.778;2023-01-30T05:34:27;99713.72;;;-2.74;68.23
46448;BME280;32145;50.390;30.778;2023-01-30T05:37:13;99707.44;;;-2.73;67.75
46448;BME280;32145;50.390;30.778;2023-01-30T05:39:57;99718.56;;;-2.69;68.21
46448;BME280;32145;50.390;30.778;2023-01-30T05:42:42;99706.44;;;-2.72;68.25
46448;BME280;32145;50.390;30.778;2023-01-30T05:45:27;99701.13;;;-2.72;68.20
46448;BME280;32145;50.390;30.778;2023-01-30T05:48:11;99700.13;;;-2.70;68.29
46448;BME280;32145;50.390;30.778;2023-01-30T05:50:57;99697.03;;;-2.66;68.39
46448;BME280;32145;50.390;30.778;2023-01-30T05:53:42;99692.56;;;-2.65;68.52
46448;BME280;32145;50.390;30.778;2023-01-30T05:56:26;99688.94;;;-2.64;68.42
46448;BME280;32145;50.390;30.778;2023-01-30T05:59:11;99680.28;;;-2.66;68.29
46448;BME280;32145;50.390;30.778;2023-01-30T06:01:55;99685.28;;;-2.63;68.27
46448;BME280;32145;50.390;30.778;2023-01-30T06:04:39;99685.81;;;-2.60;68.75
46448;BME280;32145;50.390;30.778;2023-01-30T06:07:23;99686.97;;;-2.62;68.71
46448;BME280;32145;50.390;30.778;2023-01-30T06:10:09;99683.03;;;-2.58;68.78
46448;BME280;32145;50.390;30.778;2023-01-30T06:12:54;99676.34;;;-2.62;68.64
46448;BME280;32145;50.390;30.778;2023-01-30T06:15:38;99676.88;;;-2.59;68.95
46448;BME280;32145;50.390;30.778;2023-01-30T06:18:22;99674.72;;;-2.55;69.19
46448;BME280;32145;50.390;30.778;2023-01-30T06:21:07;99677.00;;;-2.60;68.97
46448;BME280;32145;50.390;30.778;2023-01-30T06:23:51;99668.84;;;-2.67;69.50
46448;BME280;32145;50.390;30.778;2023-01-30T06:26:36;99667.38;;;-2.61;69.46
46448;BME280;32145;50.390;30.778;2023-01-30T06:29:20;99667.53;;;-2.63;69.24
46448;BME280;32145;50.390;30.778;2023-01-30T06:32:04;99669.75;;;-2.58;69.14
46448;BME280;32145;50.390;30.778;2023-01-30T06:34:48;99657.97;;;-2.55;69.27
46448;BME280;32145;50.390;30.778;2023-01-30T06:37:32;99659.19;;;-2.50;69.76
46448;BME280;32145;50.390;30.778;2023-01-30T06:40:17;99660.00;;;-2.49;69.62
46448;BME280;32145;50.390;30.778;2023-01-30T06:43:03;99656.38;;;-2.48;69.27
46448;BME280;32145;50.390;30.778;2023-01-30T06:45:47;99642.63;;;-2.43;69.02
46448;BME280;32145;50.390;30.778;2023-01-30T06:48:31;99642.31;;;-2.40;68.97
46448;BME280;32145;50.390;30.778;2023-01-30T06:51:15;99642.84;;;-2.37;69.39
46448;BME280;32145;50.390;30.778;2023-01-30T06:53:59;99651.03;;;-2.30;69.44
46448;BME280;32145;50.390;30.778;2023-01-30T06:56:43;99640.09;;;-2.27;69.31
46448;BME280;32145;50.390;30.778;2023-01-30T06:59:28;99647.75;;;-2.24;69.61
46448;BME280;32145;50.390;30.778;2023-01-30T07:02:12;99646.59;;;-2.21;69.36
46448;BME280;32145;50.390;30.778;2023-01-30T07:04:57;99636.47;;;-2.26;69.30
46448;BME280;32145;50.390;30.778;2023-01-30T10:22:54;99366.81;;;-2.55;73.77
46448;BME280;32145;50.390;30.778;2023-01-30T10:25:42;99360.56;;;-2.37;73.77
46448;BME280;32145;50.390;30.778;2023-01-30T10:28:29;99360.94;;;-2.24;73.39
46448;BME280;32145;50.390;30.778;2023-01-30T10:31:18;99352.47;;;-2.19;72.76
46448;BME280;32145;50.390;30.778;2023-01-30T10:34:05;99346.19;;;-2.10;72.38
46448;BME280;32145;50.390;30.778;2023-01-30T10:36:53;99338.38;;;-2.03;71.76
46448;BME280;32145;50.390;30.778;2023-01-30T10:39:48;99332.91;;;-2.01;72.04
46448;BME280;32145;50.390;30.778;2023-01-30T10:42:39;99331.94;;;-1.92;71.98
46448;BME280;32145;50.390;30.778;2023-01-30T10:45:32;99319.63;;;-1.93;72.12
46448;BME280;32145;50.390;30.778;2023-01-30T10:48:29;99308.50;;;-1.88;72.34
46448;BME280;32145;50.390;30.778;2023-01-30T10:51:32;99302.38;;;-1.80;72.11
46448;BME280;32145;50.390;30.778;2023-01-30T10:54:25;99299.53;;;-1.79;71.77
46448;BME280;32145;50.390;30.778;2023-01-30T10:57:17;99282.91;;;-1.73;71.35
46448;BME280;32145;50.390;30.778;2023-01-30T11:00:16;99276.59;;;-1.63;71.32
46448;BME280;32145;50.390;30.778;2023-01-30T11:03:15;99275.78;;;-1.64;71.28
46448;BME280;32145;50.390;30.778;2023-01-30T11:06:05;99265.63;;;-1.60;70.96
46448;BME280;32145;50.390;30.778;2023-01-30T11:08:49;99266.78;;;-1.54;71.06
46448;BME280;32145;50.390;30.778;2023-01-30T11:11:41;99254.63;;;-1.49;70.66
46448;BME280;32145;50.390;30.778;2023-01-30T11:14:48;99242.34;;;-1.50;70.58
46448;BME280;32145;50.390;30.778;2023-01-30T11:17:34;99240.19;;;-1.54;70.06
46448;BME280;32145;50.390;30.778;2023-01-30T11:20:21;99234.03;;;-1.47;70.15
46448;BME280;32145;50.390;30.778;2023-01-30T11:23:10;99227.88;;;-1.47;70.30
46448;BME280;32145;50.390;30.778;2023-01-30T11:26:05;99223.91;;;-1.51;69.98
46448;BME280;32145;50.390;30.778;2023-01-30T11:28:49;99222.44;;;-1.62;70.27
46448;BME280;32145;50.390;30.778;2023-01-30T11:31:38;99208.44;;;-1.56;70.68
46448;BME280;32145;50.390;30.778;2023-01-30T11:34:23;99207.78;;;-1.50;70.63
46448;BME280;32145;50.390;30.778;2023-01-30T11:37:13;99211.44;;;-1.51;70.09
46448;BME280;32145;50.390;30.778;2023-01-30T11:39:57;99201.47;;;-1.49;70.57
46448;BME280;32145;50.390;30.778;2023-01-30T11:42:43;99193.47;;;-1.49;70.59
46448;BME280;32145;50.390;30.778;2023-01-30T11:45:29;99188.63;;;-1.45;70.30
46448;BME280;32145;50.390;30.778;2023-01-30T11:48:22;99183.66;;;-1.40;70.39
46448;BME280;32145;50.390;30.778;2023-01-30T11:51:09;99182.50;;;-1.46;70.70
46448;BME280;32145;50.390;30.778;2023-01-30T11:53:55;99169.22;;;-1.46;70.64
46448;BME280;32145;50.390;30.778;2023-01-30T11:56:46;99164.53;;;-1.44;69.97
46448;BME280;32145;50.390;30.778;2023-01-30T11:59:33;99166.72;;;-1.47;70.63
46448;BME280;32145;50.390;30.778;2023-01-30T12:02:22;99169.25;;;-1.54;70.79
46448;BME280;32145;50.390;30.778;2023-01-30T12:05:20;99166.06;;;-1.49;70.87
46448;BME280;32145;50.390;30.778;2023-01-30T12:08:15;99159.72;;;-1.40;70.67
46448;BME280;32145;50.390;30.778;2023-01-30T12:11:23;99158.53;;;-1.37;70.29
46448;BME280;32145;50.390;30.778;2023-01-30T12:14:15;99152.88;;;-1.34;70.14
46448;BME280;32145;50.390;30.778;2023-01-30T12:17:07;99152.03;;;-1.35;70.54
46448;BME280;32145;50.390;30.778;2023-01-30T12:19:59;99141.91;;;-1.39;70.09
46448;BME280;32145;50.390;30.778;2023-01-30T12:22:55;99139.41;;;-1.33;70.13
46448;BME280;32145;50.390;30.778;2023-01-30T12:25:46;99140.91;;;-1.30;70.66
46448;BME280;32145;50.390;30.778;2023-01-30T12:28:37;99128.28;;;-1.36;70.79
46448;BME280;32145;50.390;30.778;2023-01-30T12:31:31;99128.94;;;-1.34;70.44
46448;BME280;32145;50.390;30.778;2023-01-30T12:34:16;99120.63;;;-1.31;70.33
46448;BME280;32145;50.390;30.778;2023-01-30T12:37:12;99118.66;;;-1.37;70.26
46448;BME280;32145;50.390;30.778;2023-01-30T12:40:10;99121.94;;;-1.35;70.68
46448;BME280;32145;50.390;30.778;2023-01-30T12:43:16;99110.81;;;-1.31;70.71
46448;BME280;32145;50.390;30.778;2023-01-30T12:46:14;99107.28;;;-1.23;70.39
46448;BME280;32145;50.390;30.778;2023-01-30T12:49:12;99113.22;;;-1.21;70.83
46448;BME280;32145;50.390;30.778;2023-01-30T12:52:18;99110.56;;;-1.21;70.58
46448;BME280;32145;50.390;30.778;2023-01-30T12:55:24;99109.41;;;-1.18;70.31
46448;BME280;32145;50.390;30.778;2023-01-30T12:58:15;99111.41;;;-1.20;70.90
46448;BME280;32145;50.390;30.778;2023-01-30T13:01:12;99093.25;;;-1.17;70.48
46448;BME280;32145;50.390;30.778;2023-01-30T13:04:05;99098.63;;;-1.25;70.70
46448;BME280;32145;50.390;30.778;2023-01-30T13:06:59;99096.63;;;-1.23;70.88
46448;BME280;32145;50.390;30.778;2023-01-30T13:09:56;99106.28;;;-1.22;70.56
46448;BME280;32145;50.390;30.778;2023-01-30T13:12:48;99104.63;;;-1.23;70.62
46448;BME280;32145;50.390;30.778;2023-01-30T13:15:37;99095.00;;;-1.32;71.26
46448;BME280;32145;50.390;30.778;2023-01-30T13:18:26;99098.63;;;-1.25;71.07
46448;BME280;32145;50.390;30.778;2023-01-30T13:21:18;99086.34;;;-1.26;71.08
46448;BME280;32145;50.390;30.778;2023-01-30T13:24:06;99104.28;;;-1.28;70.92
46448;BME280;32145;50.390;30.778;2023-01-30T13:26:58;99087.03;;;-1.32;71.14
46448;BME280;32145;50.390;30.778;2023-01-30T13:29:45;99094.03;;;-1.31;71.04
46448;BME280;32145;50.390;30.778;2023-01-30T13:32:34;99080.91;;;-1.33;71.10
46448;BME280;32145;50.390;30.778;2023-01-30T13:35:23;99074.41;;;-1.30;71.37
46448;BME280;32145;50.390;30.778;2023-01-30T13:38:11;99074.75;;;-1.33;71.61
46448;BME280;32145;50.390;30.778;2023-01-30T13:40:59;99076.56;;;-1.34;71.30
46448;BME280;32145;50.390;30.778;2023-01-30T13:43:46;99083.75;;;-1.34;71.72
46448;BME280;32145;50.390;30.778;2023-01-30T13:46:34;99075.59;;;-1.33;71.67
46448;BME280;32145;50.390;30.778;2023-01-30T13:49:24;99060.94;;;-1.28;71.42
46448;BME280;32145;50.390;30.778;2023-01-30T13:52:19;99069.91;;;-1.30;71.89
46448;BME280;32145;50.390;30.778;2023-01-30T13:55:14;99061.75;;;-1.28;71.62
46448;BME280;32145;50.390;30.778;2023-01-30T13:58:12;99056.44;;;-1.28;71.89
46448;BME280;32145;50.390;30.778;2023-01-30T14:00:59;99046.97;;;-1.31;71.74
46448;BME280;32145;50.390;30.778;2023-01-30T14:03:44;99045.50;;;-1.33;71.40
46448;BME280;32145;50.390;30.778;2023-01-30T14:06:34;99039.16;;;-1.32;71.69
46448;BME280;32145;50.390;30.778;2023-01-30T14:09:23;99040.47;;;-1.28;71.78
46448;BME280;32145;50.390;30.778;2023-01-30T14:12:16;99037.53;;;-1.33;72.11
46448;BME280;32145;50.390;30.778;2023-01-30T14:15:04;99028.53;;;-1.32;71.45
46448;BME280;32145;50.390;30.778;2023-01-30T14:18:02;99027.72;;;-1.33;71.39
46448;BME280;32145;50.390;30.778;2023-01-30T14:20:50;99028.53;;;-1.32;71.70
46448;BME280;32145;50.390;30.778;2023-01-30T14:23:34;99017.91;;;-1.32;71.59
46448;BME280;32145;50.390;30.778;2023-01-30T14:26:59;99021.84;;;-1.28;72.05
46448;BME280;32145;50.390;30.778;2023-01-30T14:29:54;99016.91;;;-1.31;72.14
46448;BME280;32145;50.390;30.778;2023-01-30T14:32:53;99016.34;;;-1.26;71.58
46448;BME280;32145;50.390;30.778;2023-01-30T14:35:37;99018.72;;;-1.32;71.44
46448;BME280;32145;50.390;30.778;2023-01-30T14:38:23;99015.91;;;-1.30;71.76
46448;BME280;32145;50.390;30.778;2023-01-30T14:41:25;99013.88;;;-1.28;71.71
46448;BME280;32145;50.390;30.778;2023-01-30T14:44:09;99009.41;;;-1.27;71.49
46448;BME280;32145;50.390;30.778;2023-01-30T14:46:53;99012.22;;;-1.29;71.70
46448;BME280;32145;50.390;30.778;2023-01-30T14:49:42;99008.94;;;-1.31;71.80
46448;BME280;32145;50.390;30.778;2023-01-30T14:52:44;99014.25;;;-1.31;72.15
46448;BME280;32145;50.390;30.778;2023-01-30T14:55:30;99009.75;;;-1.31;72.20
46448;BME280;32145;50.390;30.778;2023-01-30T14:58:17;99004.94;;;-1.35;72.43
46448;BME280;32145;50.390;30.778;2023-01-30T15:01:01;99008.94;;;-1.31;71.71
46448;BME280;32145;50.390;30.778;2023-01-30T15:03:47;99001.13;;;-1.33;72.18
46448;BME280;32145;50.390;30.778;2023-01-30T15:06:34;99003.06;;;-1.26;72.08
46448;BME280;32145;50.390;30.778;2023-01-30T15:09:18;98992.59;;;-1.28;71.96
46448;BME280;32145;50.390;30.778;2023-01-30T15:12:21;98991.31;;;-1.32;72.49
46448;BME280;32145;50.390;30.778;2023-01-30T15:15:18;98992.13;;;-1.32;71.95
46448;BME280;32145;50.390;30.778;2023-01-30T15:18:32;98990.50;;;-1.33;72.52
46448;BME280;32145;50.390;30.778;2023-01-30T15:21:29;98996.63;;;-1.32;72.37
46448;BME280;32145;50.390;30.778;2023-01-30T15:27:29;98990.00;;;-1.36;72.09
46448;BME280;32145;50.390;30.778;2023-01-30T15:30:24;98986.81;;;-1.32;72.40
46448;BME280;32145;50.390;30.778;2023-01-30T15:33:16;98980.22;;;-1.36;72.41
46448;BME280;32145;50.390;30.778;2023-01-30T15:36:17;98987.34;;;-1.36;72.25
46448;BME280;32145;50.390;30.778;2023-01-30T15:39:03;98983.03;;;-1.37;72.15
46448;BME280;32145;50.390;30.778;2023-01-30T15:41:48;98980.72;;;-1.40;72.22
46448;BME280;32145;50.390;30.778;2023-01-30T15:44:42;98977.06;;;-1.39;72.44
46448;BME280;32145;50.390;30.778;2023-01-30T15:47:49;98981.38;;;-1.38;72.20
46448;BME280;32145;50.390;30.778;2023-01-30T15:50:38;98983.38;;;-1.40;72.61
46448;BME280;32145;50.390;30.778;2023-01-30T15:53:25;98974.78;;;-1.43;72.44
46448;BME280;32145;50.390;30.778;2023-01-30T15:56:16;98970.38;;;-1.35;72.11
46448;BME280;32145;50.390;30.778;2023-01-30T15:59:02;98979.38;;;-1.36;72.38
46448;BME280;32145;50.390;30.778;2023-01-30T16:01:57;98981.00;;;-1.35;72.02
46448;BME280;32145;50.390;30.778;2023-01-30T19:15:11;98913.66;;;-2.61;76.19
46448;BME280;32145;50.390;30.778;2023-01-30T19:17:58;98911.94;;;-2.46;75.81
46448;BME280;32145;50.390;30.778;2023-01-30T19:20:42;98909.38;;;-2.30;75.64
46448;BME280;32145;50.390;30.778;2023-01-30T19:23:26;98901.84;;;-2.18;74.68
46448;BME280;32145;50.390;30.778;2023-01-30T19:26:11;98892.00;;;-2.10;74.91
46448;BME280;32145;50.390;30.778;2023-01-30T19:28:55;98890.28;;;-2.02;74.46
46448;BME280;32145;50.390;30.778;2023-01-30T19:31:40;98890.56;;;-1.97;73.97
46448;BME280;32145;50.390;30.778;2023-01-30T19:34:25;98892.44;;;-1.98;74.33
46448;BME280;32145;50.390;30.778;2023-01-30T19:37:09;98896.22;;;-1.92;74.42
46448;BME280;32145;50.390;30.778;2023-01-30T19:39:52;98891.88;;;-1.93;73.42
46448;BME280;32145;50.390;30.778;2023-01-30T19:42:36;98894.19;;;-1.90;73.94
46448;BME280;32145;50.390;30.778;2023-01-30T19:45:20;98888.59;;;-1.95;73.79
46448;BME280;32145;50.390;30.778;2023-01-30T19:48:07;98889.09;;;-2.00;74.07
46448;BME280;32145;50.390;30.778;2023-01-30T19:50:51;98885.75;;;-1.93;73.76
46448;BME280;32145;50.390;30.778;2023-01-30T19:53:35;98881.47;;;-2.03;73.65
46448;BME280;32145;50.390;30.778;2023-01-30T19:56:20;98876.50;;;-1.98;73.65
46448;BME280;32145;50.390;30.778;2023-01-30T19:59:04;98887.56;;;-1.94;73.37
46448;BME280;32145;50.390;30.778;2023-01-30T20:01:49;98892.44;;;-1.98;73.62
46448;BME280;32145;50.390;30.778;2023-01-30T20:04:34;98893.78;;;-2.02;73.60
46448;BME280;32145;50.390;30.778;2023-01-30T20:07:18;98891.47;;;-2.05;74.01
46448;BME280;32145;50.390;30.778;2023-01-30T20:10:02;98890.28;;;-2.02;74.61
46448;BME280;32145;50.390;30.778;2023-01-30T20:12:46;98898.78;;;-2.07;74.31
46448;BME280;32145;50.390;30.778;2023-01-30T20:15:30;98900.44;;;-2.06;74.13
46448;BME280;32145;50.390;30.778;2023-01-30T20:18:14;98889.81;;;-2.06;74.67
46448;BME280;32145;50.390;30.778;2023-01-30T20:21:05;98895.13;;;-2.06;74.79
46448;BME280;32145;50.390;30.778;2023-01-30T20:23:50;98893.00;;;-2.11;75.44
46448;BME280;32145;50.390;30.778;2023-01-30T20:26:35;98893.84;;;-2.10;75.07
46448;BME280;32145;50.390;30.778;2023-01-30T20:29:19;98896.53;;;-2.18;75.60
46448;BME280;32145;50.390;30.778;2023-01-30T20:32:03;98895.81;;;-2.12;75.71
46448;BME280;32145;50.390;30.778;2023-01-30T20:34:47;98888.03;;;-2.14;75.60
46448;BME280;32145;50.390;30.778;2023-01-30T20:37:33;98878.94;;;-2.20;75.98
46448;BME280;32145;50.390;30.778;2023-01-30T20:40:17;98889.56;;;-2.20;76.21
46448;BME280;32145;50.390;30.778;2023-01-30T20:43:00;98897.53;;;-2.20;75.67
46448;BME280;32145;50.390;30.778;2023-01-30T20:45:45;98891.06;;;-2.25;75.81
46448;BME280;32145;50.390;30.778;2023-01-30T20:48:29;98895.88;;;-2.21;76.14
46448;BME280;32145;50.390;30.778;2023-01-30T20:51:14;98893.09;;;-2.27;76.80
46448;BME280;32145;50.390;30.778;2023-01-30T20:54:01;98891.25;;;-2.27;76.31
46448;BME280;32145;50.390;30.778;2023-01-30T20:56:48;98889.56;;;-2.20;76.45
46448;BME280;32145;50.390;30.778;2023-01-30T20:59:32;98901.88;;;-2.27;76.52
46448;BME280;32145;50.390;30.778;2023-01-30T21:02:16;98896.56;;;-2.27;77.33
46448;BME280;32145;50.390;30.778;2023-01-30T21:05:00;98902.88;;;-2.28;77.11
46448;BME280;32145;50.390;30.778;2023-01-30T21:07:43;98903.56;;;-2.26;77.04
46448;BME280;32145;50.390;30.778;2023-01-30T21:10:32;98897.56;;;-2.28;77.14
46448;BME280;32145;50.390;30.778;2023-01-30T21:13:16;98900.78;;;-2.33;77.85
46448;BME280;32145;50.390;30.778;2023-01-30T21:16:02;98899.31;;;-2.43;78.71